createdAt,value
2022-08-09T10:13:45.314Z,24.30
2022-08-09T10:16:58.201Z,24.07
2022-08-09T10:19:08.085Z,24.51
2022-08-09T10:21:57.185Z,24.62
2022-08-09T10:25:23.045Z,24.24
2022-08-09T10:28:12.978Z,23.84
2022-08-09T10:34:08.829Z,24.72
2022-08-09T10:36:53.875Z,25.07
2022-08-09T10:39:49.236Z,25.58
2022-08-09T10:42:31.856Z,25.83
2022-08-09T10:45:31.779Z,25.71
2022-08-09T10:48:31.342Z,26.02
2022-08-09T10:51:29.551Z,26.29
2022-08-09T10:54:17.856Z,26.45
2022-08-09T10:57:10.801Z,26.83
2022-08-09T11:00:01.654Z,27.14
2022-08-09T11:03:15.623Z,27.45
2022-08-09T11:05:38.687Z,27.60
2022-08-09T11:08:47.585Z,27.81
2022-08-09T11:12:02.159Z,27.89
2022-08-09T11:15:11.686Z,27.42
2022-08-09T11:18:03.906Z,27.17
2022-08-09T11:20:49.780Z,27.49
2022-08-09T11:23:57.175Z,27.69
2022-08-09T11:26:49.413Z,27.28
2022-08-09T11:30:06.015Z,26.80
2022-08-09T11:32:48.242Z,27.13
2022-08-09T11:35:57.754Z,27.65
2022-08-09T11:38:45.625Z,27.49
2022-08-09T11:41:37.824Z,26.75
2022-08-09T11:44:24.095Z,26.49
2022-08-09T11:47:14.460Z,26.87
2022-08-09T11:50:56.077Z,27.38
2022-08-09T11:53:58.622Z,27.92
2022-08-09T11:56:02.384Z,27.28
2022-08-09T11:58:55.897Z,26.50
2022-08-09T12:02:34.199Z,26.01
2022-08-09T12:04:38.023Z,25.68
2022-08-09T12:07:22.538Z,25.49
2022-08-09T12:10:31.757Z,25.41
2022-08-09T12:13:03.750Z,26.07
2022-08-09T12:15:52.573Z,26.77
2022-08-09T12:18:41.897Z,26.63
2022-08-09T12:21:38.540Z,25.92
2022-08-09T12:24:25.797Z,25.25
2022-08-09T12:29:11.579Z,24.81
2022-08-09T12:30:36.506Z,24.50
2022-08-09T12:33:04.586Z,24.38
2022-08-09T12:35:53.801Z,24.42
2022-08-09T12:38:42.899Z,24.90
2022-08-09T12:41:39.010Z,25.79
2022-08-09T12:44:24.553Z,26.24
2022-08-09T12:47:12.482Z,26.29
2022-08-09T12:50:19.962Z,25.99
2022-08-09T12:53:09.329Z,25.83
2022-08-09T12:56:36.841Z,26.29
2022-08-09T12:59:14.038Z,26.70
2022-08-09T13:02:07.191Z,27.03
2022-08-09T13:05:04.618Z,27.66
2022-08-09T13:08:14.777Z,28.60
2022-08-09T13:11:23.185Z,29.39
2022-08-09T13:16:49.411Z,31.28
2022-08-09T13:20:10.276Z,30.85
2022-08-09T13:23:01.253Z,29.77
2022-08-09T13:25:23.290Z,28.89
2022-08-09T13:28:34.454Z,28.21
2022-08-09T13:32:13.482Z,27.53
2022-08-09T13:33:59.929Z,26.80
2022-08-09T13:36:49.240Z,26.04
2022-08-09T13:41:50.540Z,25.48
2022-08-09T13:42:31.942Z,25.11
2022-08-09T13:45:20.801Z,25.02
2022-08-09T13:48:10.831Z,25.13
2022-08-09T13:50:57.304Z,25.28
2022-08-09T13:53:45.705Z,25.35
2022-08-09T13:56:32.890Z,25.17
2022-08-09T13:59:20.320Z,25.04
2022-08-09T14:02:09.995Z,24.85
2022-08-09T14:04:59.704Z,25.12
2022-08-09T14:07:46.521Z,27.50
2022-08-09T14:10:46.277Z,28.26
2022-08-09T14:14:15.718Z,27.56
2022-08-09T14:16:28.167Z,26.82
2022-08-09T14:19:10.256Z,26.07
2022-08-09T14:21:58.090Z,25.43
2022-08-09T14:24:47.126Z,24.98
2022-08-09T14:27:56.695Z,24.78
2022-08-09T14:30:37.327Z,24.69
2022-08-09T14:33:13.194Z,24.60
2022-08-09T14:36:19.746Z,24.64
2022-08-09T14:38:52.686Z,24.61
2022-08-09T14:41:42.000Z,24.63
2022-08-09T14:44:32.753Z,24.70
2022-08-09T14:47:39.711Z,24.87
2022-08-09T14:50:08.398Z,25.09
2022-08-09T14:52:57.660Z,25.32
2022-08-09T14:55:49.866Z,25.51
2022-08-09T14:58:37.632Z,25.89
2022-08-09T15:01:27.006Z,26.24
2022-08-09T15:04:14.385Z,26.37
2022-08-09T15:07:02.106Z,26.37
2022-08-09T15:10:04.577Z,26.43
2022-08-09T15:12:38.880Z,26.42
2022-08-09T15:15:28.545Z,26.40
2022-08-09T15:18:16.264Z,26.32
2022-08-09T15:21:55.402Z,26.20
2022-08-09T15:24:02.198Z,26.15
2022-08-09T15:26:46.411Z,26.33
2022-08-09T15:30:57.361Z,26.62
2022-08-09T15:32:28.652Z,26.72
2022-08-09T15:35:18.149Z,26.76
2022-08-09T15:38:11.218Z,26.95
2022-08-09T15:40:50.936Z,26.90
2022-08-09T15:43:40.721Z,26.64
2022-08-09T15:46:34.278Z,26.47
2022-08-09T15:49:22.375Z,27.47
2022-08-09T15:52:09.361Z,29.69
2022-08-09T15:54:58.577Z,31.32
2022-08-09T15:57:51.476Z,32.16
2022-08-09T16:00:39.088Z,32.44
2022-08-09T16:03:38.296Z,32.79
2022-08-09T16:06:16.137Z,32.92
2022-08-09T16:09:06.169Z,33.15
2022-08-09T16:11:57.203Z,33.84
2022-08-09T16:14:42.536Z,34.19
2022-08-09T16:17:30.159Z,34.48
2022-08-09T16:20:18.992Z,34.57
2022-08-09T16:23:07.936Z,34.80
2022-08-09T16:26:01.045Z,34.79
2022-08-09T16:28:46.368Z,34.30
2022-08-09T16:32:10.475Z,32.57
2022-08-09T16:34:23.675Z,30.96
2022-08-09T16:37:11.870Z,29.68
2022-08-09T16:40:04.917Z,28.70
2022-08-09T16:42:49.777Z,27.87
2022-08-09T16:45:43.819Z,27.13
2022-08-09T16:48:39.465Z,26.59
2022-08-09T16:51:17.051Z,26.10
2022-08-09T16:54:27.871Z,25.68
2022-08-09T16:56:53.601Z,25.42
2022-08-09T16:59:44.141Z,25.28
2022-08-09T17:02:31.315Z,25.15
2022-08-09T17:05:19.991Z,24.93
2022-08-09T17:08:42.775Z,24.64
2022-08-09T17:10:56.913Z,24.30
2022-08-09T17:13:45.180Z,23.87
2022-08-09T17:16:38.222Z,23.50
2022-08-09T17:19:22.015Z,23.24
2022-08-09T17:22:10.473Z,23.06
2022-08-09T17:25:03.741Z,22.83
2022-08-09T17:27:49.387Z,22.70
2022-08-09T17:30:37.690Z,22.52
2022-08-09T17:33:26.569Z,22.32
2022-08-09T17:36:17.300Z,22.15
2022-08-09T17:39:06.591Z,21.99
2022-08-09T17:41:56.177Z,21.85
2022-08-09T17:44:49.323Z,21.68
2022-08-09T17:47:49.757Z,21.53
2022-08-09T17:50:36.662Z,21.39
2022-08-09T17:53:22.351Z,21.24
2022-08-09T17:56:09.551Z,21.09
2022-08-09T17:58:59.892Z,20.95
2022-08-09T18:02:07.978Z,20.86
2022-08-09T18:04:37.265Z,20.80
2022-08-09T18:07:26.930Z,20.75
2022-08-09T18:10:16.344Z,20.68
2022-08-09T18:13:53.620Z,20.61
2022-08-09T18:16:07.766Z,20.53
2022-08-09T18:18:49.197Z,20.42
2022-08-09T18:21:41.589Z,20.32
2022-08-09T18:24:27.513Z,20.24
2022-08-09T18:27:49.394Z,20.13
2022-08-09T18:30:41.749Z,20.00
2022-08-09T18:32:58.370Z,19.80
2022-08-09T18:35:58.176Z,19.61
2022-08-09T18:38:36.907Z,19.47
2022-08-09T18:41:29.455Z,19.38
2022-08-09T18:44:13.968Z,19.29
2022-08-09T18:47:05.402Z,19.20
2022-08-09T18:49:54.985Z,19.09
2022-08-09T18:52:46.388Z,18.97
2022-08-09T18:55:56.098Z,18.79
2022-08-09T18:58:32.208Z,18.65
2022-08-09T19:01:17.464Z,18.50
2022-08-09T19:04:09.472Z,18.34
2022-08-09T19:06:58.306Z,18.19
2022-08-09T19:10:14.928Z,18.11
2022-08-09T19:12:40.457Z,18.04
2022-08-09T19:15:31.353Z,17.99
2022-08-09T19:18:33.819Z,17.95
2022-08-09T19:21:11.802Z,17.89
2022-08-09T19:24:39.577Z,17.91
2022-08-09T19:26:51.712Z,17.93
2022-08-09T19:30:25.174Z,17.97
2022-08-09T19:32:29.658Z,17.99
2022-08-09T19:35:18.825Z,17.96
2022-08-09T19:38:11.002Z,17.92
2022-08-09T19:41:05.499Z,17.86
2022-08-09T19:44:01.242Z,17.78
2022-08-09T19:46:50.698Z,17.68
2022-08-09T19:50:09.443Z,17.58
2022-08-09T19:52:23.384Z,17.46
2022-08-09T19:55:13.219Z,17.35
2022-08-09T19:58:04.833Z,17.19
2022-08-09T20:00:52.043Z,17.02
2022-08-09T20:04:18.057Z,16.88
2022-08-09T20:06:31.451Z,16.72
2022-08-09T20:09:44.662Z,16.61
2022-08-09T20:12:27.259Z,16.49
2022-08-09T20:16:34.768Z,16.35
2022-08-09T20:18:00.257Z,16.22
2022-08-09T20:20:50.318Z,16.10
2022-08-09T20:23:39.056Z,15.99
2022-08-09T20:26:31.434Z,15.90
2022-08-09T20:29:19.266Z,15.81
2022-08-09T20:32:29.291Z,15.69
2022-08-09T20:35:02.275Z,15.59
2022-08-09T20:38:20.349Z,15.44
2022-08-09T20:40:41.060Z,15.27
2022-08-09T20:43:32.377Z,15.14
2022-08-09T20:46:42.122Z,15.05
2022-08-09T20:49:10.331Z,14.98
2022-08-09T20:51:58.400Z,14.89
2022-08-09T20:54:52.644Z,14.84
2022-08-09T20:58:05.304Z,14.80
2022-08-09T21:00:32.132Z,14.79
2022-08-09T21:03:22.030Z,14.73
2022-08-09T21:06:09.552Z,14.65
2022-08-09T21:09:00.020Z,14.59
2022-08-09T21:14:40.545Z,14.36
2022-08-09T21:18:21.572Z,14.29
2022-08-09T21:20:23.052Z,14.23
2022-08-09T21:23:09.204Z,14.20
2022-08-09T21:25:59.901Z,14.18
2022-08-09T21:28:55.446Z,14.17
2022-08-09T21:31:49.226Z,14.17
2022-08-09T21:34:29.018Z,14.15
2022-08-09T21:37:18.148Z,14.15
2022-08-09T21:40:04.034Z,14.13
2022-08-09T21:42:54.261Z,14.08
2022-08-09T21:45:41.984Z,14.04
2022-08-09T21:48:30.994Z,13.99
2022-08-09T21:51:24.559Z,13.93
2022-08-09T21:54:10.161Z,13.90
2022-08-09T21:56:59.554Z,13.88
2022-08-09T21:59:46.813Z,13.84
2022-08-09T22:02:40.244Z,13.77
2022-08-09T22:05:37.048Z,13.71
2022-08-09T22:08:32.019Z,13.65
2022-08-09T22:12:05.668Z,13.64
2022-08-09T22:14:14.880Z,13.64
2022-08-09T22:17:02.178Z,13.66
2022-08-09T22:19:59.774Z,13.66
2022-08-09T22:22:42.251Z,13.59
2022-08-09T22:26:08.138Z,13.54
2022-08-09T22:28:21.135Z,13.50
2022-08-09T22:31:08.562Z,13.42
2022-08-09T22:33:56.425Z,13.30
2022-08-09T22:36:45.998Z,13.19
2022-08-09T22:39:56.021Z,13.12
2022-08-09T22:42:23.793Z,13.05
2022-08-09T22:48:11.987Z,12.91
2022-08-09T22:48:16.236Z,12.96
2022-08-09T22:50:53.074Z,12.88
2022-08-09T22:53:58.505Z,12.86
2022-08-09T22:56:31.377Z,12.83
2022-08-09T22:59:56.049Z,12.80
2022-08-09T23:02:07.146Z,12.81
2022-08-09T23:04:57.047Z,12.83
2022-08-09T23:08:21.944Z,12.88
2022-08-09T23:10:51.576Z,12.92
2022-08-09T23:13:39.081Z,12.83
2022-08-09T23:16:26.041Z,12.72
2022-08-09T23:19:13.264Z,12.62
2022-08-09T23:22:01.017Z,12.58
2022-08-09T23:24:48.683Z,12.57
2022-08-09T23:27:36.800Z,12.63
2022-08-09T23:30:25.769Z,12.65
2022-08-09T23:33:13.587Z,12.66
2022-08-09T23:36:06.456Z,12.66
2022-08-09T23:38:50.161Z,12.68
2022-08-09T23:41:38.243Z,12.72
2022-08-09T23:44:25.816Z,12.70
2022-08-09T23:47:13.146Z,12.62
2022-08-09T23:50:00.445Z,12.57
2022-08-09T23:52:47.882Z,12.57
2022-08-09T23:55:37.966Z,12.61
2022-08-09T23:58:29.717Z,12.66
